createdAt,value
2018-09-15T04:00:01.735Z,0.1
2018-09-15T04:02:00.803Z,0.2
2018-09-15T04:03:00.825Z,0.3
2018-09-15T04:05:00.977Z,0.4
2018-09-15T04:06:00.803Z,0.5
2018-09-15T04:07:00.805Z,0.7
2018-09-15T04:08:00.804Z,0.8
2018-09-15T04:09:00.805Z,0.9
2018-09-15T04:10:00.983Z,1.1
2018-09-15T04:11:00.805Z,1.4
2018-09-15T04:12:00.803Z,1.7
2018-09-15T04:13:00.807Z,2.0
2018-09-15T04:14:00.809Z,2.5
2018-09-15T04:15:01.009Z,2.9
2018-09-15T04:16:00.808Z,3.5
2018-09-15T04:17:00.805Z,4.3
2018-09-15T04:18:00.807Z,5.1
2018-09-15T04:19:00.819Z,6.2
2018-09-15T04:20:00.991Z,7.5
2018-09-15T04:21:00.805Z,8.9
2018-09-15T04:22:00.804Z,10.7
2018-09-15T04:23:00.811Z,12.9
2018-09-15T04:24:00.805Z,15.5
2018-09-15T04:25:00.987Z,18.6
2018-09-15T04:26:00.806Z,22.2
2018-09-15T04:27:00.812Z,26.6
2018-09-15T04:28:00.807Z,31.8
2018-09-15T04:29:00.811Z,38.0
2018-09-15T04:30:00.986Z,45.4
2018-09-15T04:31:00.822Z,54.1
2018-09-15T04:32:00.809Z,64.5
2018-09-15T04:33:00.813Z,76.6
2018-09-15T04:34:00.818Z,90.7
2018-09-15T04:35:00.988Z,107.3
2018-09-15T04:36:00.809Z,126.5
2018-09-15T04:37:00.818Z,148.9
2018-09-15T04:38:00.812Z,174.7
2018-09-15T04:39:00.832Z,204.5
2018-09-15T04:40:00.986Z,238.1
2018-09-15T04:41:00.811Z,275.7
2018-09-15T04:42:00.811Z,317.6
2018-09-15T04:43:00.811Z,365.6
2018-09-15T04:44:00.779Z,420.8
2018-09-15T04:45:00.990Z,483.0
2018-09-15T04:46:00.809Z,550.9
2018-09-15T04:47:00.817Z,624.5
2018-09-15T04:48:00.811Z,706.1
2018-09-15T04:49:00.781Z,798.3
2018-09-15T04:50:00.989Z,899.8
2018-09-15T04:51:00.818Z,1006.1
2018-09-15T04:52:00.814Z,1116.0
2018-09-15T04:53:00.813Z,1232.7
2018-09-15T04:54:00.783Z,1360.0
2018-09-15T04:55:01.026Z,1498.9
2018-09-15T04:56:00.813Z,1649.9
2018-09-15T04:57:00.817Z,1813.9
2018-09-15T04:58:00.813Z,1987.9
2018-09-15T04:59:00.815Z,2170.6
2018-09-15T05:00:01.315Z,2362.9
2018-09-15T05:01:00.784Z,2565.9
2018-09-15T05:02:00.811Z,2779.8
2018-09-15T05:03:00.783Z,3001.9
2018-09-15T05:04:00.816Z,3229.2
2018-09-15T05:05:00.980Z,3462.9
2018-09-15T05:06:00.820Z,3707.3
2018-09-15T05:07:00.827Z,3963.9
2018-09-15T05:08:00.815Z,4229.3
2018-09-15T05:09:00.817Z,4499.5
2018-09-15T05:10:00.961Z,4773.7
2018-09-15T05:11:00.825Z,5052.8
2018-09-15T05:12:00.817Z,5336.3
2018-09-15T05:13:00.920Z,5622.2
2018-09-15T05:14:00.819Z,5912.3
2018-09-15T05:15:00.986Z,6206.5
2018-09-15T05:16:00.822Z,6505.5
2018-09-15T05:17:00.820Z,6811.1
2018-09-15T05:18:00.821Z,7124.4
2018-09-15T05:19:00.817Z,7447.7
2018-09-15T05:20:00.964Z,7782.1
2018-09-15T05:21:00.822Z,8127.7
2018-09-15T05:22:00.819Z,8485.4
2018-09-15T05:23:00.825Z,8861.6
2018-09-15T05:24:00.818Z,9260.7
2018-09-15T05:25:03.081Z,9667.3
2018-09-15T05:26:00.826Z,10099.7
2018-09-15T05:27:00.819Z,10536.8
2018-09-15T05:28:00.822Z,10991.9
2018-09-15T05:29:00.819Z,11457.3
2018-09-15T05:30:00.960Z,11929.1
2018-09-15T05:31:00.820Z,12406.3
2018-09-15T05:32:00.820Z,12885.5
2018-09-15T05:33:00.819Z,13365.4
2018-09-15T05:34:00.828Z,13841.3
2018-09-15T05:35:01.036Z,14310.1
2018-09-15T05:36:00.853Z,14769.3
2018-09-15T05:37:00.791Z,15219.0
2018-09-15T05:38:00.824Z,15654.7
2018-09-15T05:39:00.824Z,16078.2
2018-09-15T05:40:01.044Z,16509.3
2018-09-15T05:41:00.851Z,16928.9
2018-09-15T05:42:00.821Z,17361.3
2018-09-15T05:43:00.819Z,17809.3
2018-09-15T05:44:00.858Z,18290.2
2018-09-15T05:45:01.026Z,18813.4
2018-09-15T05:46:00.825Z,19366.3
2018-09-15T05:47:00.823Z,19893.9
2018-09-15T05:48:00.826Z,20353.5
2018-09-15T05:49:00.861Z,20771.5
2018-09-15T05:50:01.028Z,21169.9
2018-09-15T05:51:00.830Z,21565.7
2018-09-15T05:52:00.824Z,21968.3
2018-09-15T05:53:00.828Z,22387.2
2018-09-15T05:54:00.864Z,22820.3
2018-09-15T05:55:00.973Z,23257.5
2018-09-15T05:56:00.833Z,23683.8
2018-09-15T05:57:00.828Z,24092.7
2018-09-15T05:58:00.830Z,24474.9
2018-09-15T05:59:00.864Z,24827.5
2018-09-15T06:00:00.970Z,25146.5
2018-09-15T06:01:00.833Z,25449.5
2018-09-15T06:02:00.834Z,25800.2
2018-09-15T06:03:00.833Z,26255.2
2018-09-15T06:04:00.872Z,26794.3
2018-09-15T06:05:01.064Z,27401.3
2018-09-15T06:06:00.837Z,28073.2
2018-09-15T06:07:00.802Z,28827.7
2018-09-15T06:08:00.805Z,29695.1
2018-09-15T06:09:00.891Z,30737.2
2018-09-15T06:10:01.003Z,32027.1
2018-09-15T06:11:00.840Z,33621.8
2018-09-15T06:12:00.844Z,35601.1
2018-09-15T06:13:00.837Z,38014.7
2018-09-15T06:14:01.023Z,40550.1
2018-09-15T06:15:00.984Z,43048.4
2018-09-15T06:16:00.841Z,45504.9
2018-09-15T06:17:00.842Z,47764.5
2018-09-15T06:18:00.840Z,49523.3
2018-09-15T06:19:00.882Z,50757.7
2018-09-15T06:20:00.991Z,51689.9
2018-09-15T06:21:00.812Z,52198.3
2018-09-15T06:22:00.843Z,52165.4
2018-09-15T06:23:00.842Z,51664.2
2018-09-15T06:24:00.870Z,50586.6
2018-09-15T06:25:01.050Z,48889.0
2018-09-15T06:26:08.133Z,46604.0
2018-09-15T06:27:00.847Z,43781.0
2018-09-15T06:28:00.848Z,40452.6
2018-09-15T06:29:00.888Z,36934.8
2018-09-15T06:30:00.990Z,33393.5
2018-09-15T06:31:00.905Z,29825.0
2018-09-15T06:32:00.849Z,26415.4
2018-09-15T06:33:06.419Z,23482.3
2018-09-15T06:34:02.964Z,21027.9
2018-09-15T06:35:01.102Z,18871.4
2018-09-15T06:36:00.849Z,17172.4
2018-09-15T06:37:00.850Z,15964.2
2018-09-15T06:38:00.855Z,15085.1
2018-09-15T06:39:00.849Z,14655.3
2018-09-15T06:40:01.024Z,14693.7
2018-09-15T06:41:00.898Z,15089.5
2018-09-15T06:42:00.855Z,15607.5
2018-09-15T06:43:00.873Z,16094.7
2018-09-15T06:44:01.107Z,16574.9
2018-09-15T06:45:00.997Z,17085.4
2018-09-15T06:46:00.892Z,17740.7
2018-09-15T06:47:00.852Z,18600.8
2018-09-15T06:48:00.856Z,19776.1
2018-09-15T06:49:00.858Z,21347.1
2018-09-15T06:50:00.999Z,23328.9
2018-09-15T06:51:00.888Z,25681.1
2018-09-15T06:52:00.853Z,28515.5
2018-09-15T06:53:00.885Z,31721.9
2018-09-15T06:54:00.871Z,34870.5
2018-09-15T06:55:01.000Z,37884.0
2018-09-15T06:56:00.890Z,40797.6
2018-09-15T06:57:00.865Z,43719.7
2018-09-15T06:58:00.855Z,46717.7
2018-09-15T06:59:00.855Z,49755.4
2018-09-15T07:00:01.063Z,52786.2
2018-09-15T07:01:01.191Z,55699.3
2018-09-15T07:02:00.859Z,58396.7
2018-09-15T07:03:00.858Z,60739.9
2018-09-15T07:04:00.855Z,62666.9
2018-09-15T07:05:01.027Z,64116.7
2018-09-15T07:06:00.886Z,65080.3
2018-09-15T07:07:00.946Z,65500.6
2018-09-15T07:08:00.861Z,65535.0
2018-09-15T07:15:01.094Z,65535.0
2018-09-15T07:18:00.936Z,65338.7
2018-09-15T07:19:00.871Z,64905.0
2018-09-15T07:20:01.091Z,64645.5
2018-09-15T07:21:00.861Z,64457.3
2018-09-15T07:30:01.104Z,64457.3
2018-09-15T07:33:00.879Z,64653.7
2018-09-15T07:34:00.869Z,65087.3
2018-09-15T07:35:01.011Z,65346.9
2018-09-15T07:36:00.868Z,65535.0
2018-09-15T07:45:01.024Z,65535.0
2018-09-15T08:00:01.154Z,65535.0
2018-09-15T08:15:01.023Z,65535.0
2018-09-15T08:30:01.097Z,65535.0
2018-09-15T08:45:01.114Z,65535.0
2018-09-15T09:00:01.455Z,65535.0
2018-09-15T09:15:01.039Z,65535.0
2018-09-15T09:30:01.074Z,65535.0
2018-09-15T09:45:01.049Z,65535.0
2018-09-15T10:00:01.183Z,65535.0
2018-09-15T10:15:01.108Z,65535.0
2018-09-15T10:30:01.116Z,65535.0
2018-09-15T10:45:01.059Z,65535.0
2018-09-15T11:00:01.217Z,65535.0
2018-09-15T11:15:01.186Z,65535.0
2018-09-15T11:30:02.086Z,65535.0
2018-09-15T11:31:00.924Z,65333.1
2018-09-15T11:45:01.095Z,65333.1
2018-09-15T11:46:00.922Z,65535.0
2018-09-15T12:00:01.270Z,65535.0
2018-09-15T12:15:01.126Z,65535.0
2018-09-15T12:30:03.298Z,65535.0
2018-09-15T12:45:01.499Z,65535.0
2018-09-15T13:00:01.311Z,65535.0
2018-09-15T13:15:01.149Z,65535.0
2018-09-15T13:30:01.203Z,65535.0
2018-09-15T13:45:01.103Z,65535.0
2018-09-15T13:49:01.024Z,65482.6
2018-09-15T13:50:01.098Z,65134.3
2018-09-15T13:51:00.954Z,64703.7
2018-09-15T13:52:00.952Z,64264.9
2018-09-15T13:53:00.955Z,63854.0
2018-09-15T13:54:01.040Z,63533.8
2018-09-15T13:55:01.097Z,63321.1
2018-09-15T13:56:05.970Z,63207.4
2018-09-15T14:00:01.363Z,63207.4
2018-09-15T14:03:00.958Z,63163.4
2018-09-15T14:04:00.957Z,62967.5
2018-09-15T14:05:01.343Z,62850.7
2018-09-15T14:06:00.955Z,62648.3
2018-09-15T14:07:00.958Z,62368.7
2018-09-15T14:08:00.956Z,62011.7
2018-09-15T14:09:00.956Z,61544.0
2018-09-15T14:10:07.044Z,60977.5
2018-09-15T14:11:01.052Z,60334.8
2018-09-15T14:12:00.962Z,59614.3
2018-09-15T14:13:00.961Z,58949.5
2018-09-15T14:14:00.959Z,58375.7
2018-09-15T14:15:01.101Z,57917.4
2018-09-15T14:16:00.967Z,57587.2
2018-09-15T14:17:00.983Z,57381.1
2018-09-15T14:18:00.958Z,57361.7
2018-09-15T14:19:00.966Z,57610.1
2018-09-15T14:20:01.171Z,58075.2
2018-09-15T14:21:00.964Z,58708.1
2018-09-15T14:22:00.971Z,59426.5
2018-09-15T14:23:00.968Z,60194.4
2018-09-15T14:24:00.965Z,60982.3
2018-09-15T14:25:01.119Z,61761.6
2018-09-15T14:26:00.968Z,62517.9
2018-09-15T14:27:00.965Z,63238.4
2018-09-15T14:28:00.965Z,63903.3
2018-09-15T14:29:00.934Z,64477.1
2018-09-15T14:30:01.173Z,64935.3
2018-09-15T14:31:00.970Z,65265.5
2018-09-15T14:32:00.975Z,65471.7
2018-09-15T14:33:00.936Z,65535.0
2018-09-15T14:37:02.149Z,65435.5
2018-09-15T14:38:00.967Z,65030.8
2018-09-15T14:39:00.970Z,64339.5
2018-09-15T14:40:00.969Z,63444.9
2018-09-15T14:41:00.968Z,62409.1
2018-09-15T14:42:01.107Z,61168.5
2018-09-15T14:43:00.977Z,59752.0
2018-09-15T14:44:00.972Z,58228.1
2018-09-15T14:45:00.975Z,56632.8
2018-09-15T14:46:01.008Z,54971.2
2018-09-15T14:47:01.129Z,53247.5
2018-09-15T14:48:01.029Z,51520.1
2018-09-15T14:49:00.973Z,49810.9
2018-09-15T14:50:00.976Z,48248.0
2018-09-15T14:51:00.978Z,46872.7
2018-09-15T14:52:01.107Z,45631.6
2018-09-15T14:53:00.974Z,44633.7
2018-09-15T14:54:00.979Z,43898.7
2018-09-15T14:55:00.978Z,43486.3
2018-09-15T14:56:00.975Z,43368.3
2018-09-15T14:57:01.122Z,43553.9
2018-09-15T14:58:00.944Z,44014.5
2018-09-15T14:59:00.980Z,44651.8
2018-09-15T15:00:00.982Z,45381.7
2018-09-15T15:01:01.009Z,46117.1
2018-09-15T15:02:01.178Z,46752.4
2018-09-15T15:03:00.976Z,47273.0
2018-09-15T15:04:00.977Z,47771.2
2018-09-15T15:05:00.976Z,48202.3
2018-09-15T15:06:00.982Z,48588.4
2018-09-15T15:07:01.211Z,49038.3
2018-09-15T15:08:00.977Z,49546.3
2018-09-15T15:09:00.981Z,50029.2
2018-09-15T15:10:00.947Z,50327.1
2018-09-15T15:11:06.163Z,50298.4
2018-09-15T15:12:01.122Z,49943.3
2018-09-15T15:13:00.983Z,49423.9
2018-09-15T15:14:00.987Z,48887.8
2018-09-15T15:15:00.979Z,48382.1
2018-09-15T15:16:00.978Z,47933.7
2018-09-15T15:17:01.122Z,47659.5
2018-09-15T15:18:00.979Z,47517.7
2018-09-15T15:19:00.978Z,47356.3
2018-09-15T15:20:00.950Z,47119.3
2018-09-15T15:21:00.982Z,46792.7
2018-09-15T15:22:01.121Z,46430.6
2018-09-15T15:23:00.986Z,46105.5
2018-09-15T15:24:00.983Z,45862.3
2018-09-15T15:25:00.979Z,45745.7
2018-09-15T15:26:01.076Z,45860.0
2018-09-15T15:27:01.122Z,46188.8
2018-09-15T15:28:00.983Z,46514.1
2018-09-15T15:29:00.990Z,46737.5
2018-09-15T15:30:00.984Z,46940.5
2018-09-15T15:31:00.989Z,47258.9
2018-09-15T15:32:01.188Z,47701.8
2018-09-15T15:33:00.984Z,48222.6
2018-09-15T15:34:00.989Z,48799.9
2018-09-15T15:35:00.983Z,49374.4
2018-09-15T15:36:00.953Z,49923.5
2018-09-15T15:37:01.129Z,50446.6
2018-09-15T15:38:00.986Z,50939.3
2018-09-15T15:39:00.994Z,51401.9
2018-09-15T15:40:00.987Z,51868.2
2018-09-15T15:41:00.990Z,52392.5
2018-09-15T15:42:01.427Z,53014.9
2018-09-15T15:43:00.990Z,53732.4
2018-09-15T15:44:00.955Z,54537.7
2018-09-15T15:45:01.063Z,55385.8
2018-09-15T15:46:00.986Z,56139.9
2018-09-15T15:47:01.130Z,56664.5
2018-09-15T15:48:00.986Z,56909.3
2018-09-15T15:49:00.985Z,56920.7
2018-09-15T15:50:00.992Z,56802.6
2018-09-15T15:51:00.987Z,56541.1
2018-09-15T15:52:01.159Z,56070.5
2018-09-15T15:53:00.987Z,55416.4
2018-09-15T15:54:00.995Z,54565.3
2018-09-15T15:55:01.055Z,53495.2
2018-09-15T15:56:00.989Z,52205.9
2018-09-15T15:57:01.236Z,50746.3
2018-09-15T15:58:00.988Z,49153.6
2018-09-15T15:59:01.027Z,47414.1
2018-09-15T16:00:00.990Z,45514.0
2018-09-15T16:01:00.991Z,43547.6
2018-09-15T16:02:01.142Z,41661.1
2018-09-15T16:03:00.990Z,39966.1
2018-09-15T16:04:00.989Z,38481.2
2018-09-15T16:05:00.990Z,37137.8
2018-09-15T16:06:00.993Z,35938.1
2018-09-15T16:07:01.157Z,34943.5
2018-09-15T16:08:00.990Z,34129.1
2018-09-15T16:09:00.989Z,33459.3
2018-09-15T16:10:00.997Z,32865.7
2018-09-15T16:11:01.016Z,32289.4
2018-09-15T16:12:01.141Z,31712.1
2018-09-15T16:13:00.991Z,31173.3
2018-09-15T16:14:00.991Z,30702.5
2018-09-15T16:15:00.991Z,30271.8
2018-09-15T16:16:00.993Z,29824.9
2018-09-15T16:17:01.195Z,29306.3
2018-09-15T16:18:00.993Z,28708.2
2018-09-15T16:19:00.993Z,28061.3
2018-09-15T16:20:00.999Z,27379.0
2018-09-15T16:21:00.997Z,26642.1
2018-09-15T16:22:01.205Z,25850.7
2018-09-15T16:23:01.025Z,25055.1
2018-09-15T16:24:01.002Z,24304.2
2018-09-15T16:25:00.997Z,23641.1
2018-09-15T16:26:01.036Z,23089.1
2018-09-15T16:27:01.145Z,22639.6
2018-09-15T16:28:01.000Z,22269.1
2018-09-15T16:29:00.999Z,21951.9
2018-09-15T16:30:01.000Z,21698.1
2018-09-15T16:31:01.004Z,21524.1
2018-09-15T16:32:01.149Z,21447.3
2018-09-15T16:33:01.003Z,21454.4
2018-09-15T16:34:01.004Z,21503.5
2018-09-15T16:35:01.005Z,21560.1
2018-09-15T16:36:01.006Z,21612.9
2018-09-15T16:37:01.150Z,21654.3
2018-09-15T16:38:01.005Z,21674.3
2018-09-15T16:39:01.005Z,21689.8
2018-09-15T16:40:01.003Z,21692.7
2018-09-15T16:41:01.017Z,21650.9
2018-09-15T16:42:01.143Z,21565.5
2018-09-15T16:43:01.073Z,21446.7
2018-09-15T16:44:01.082Z,21290.9
2018-09-15T16:45:01.012Z,21083.1
2018-09-15T16:46:01.042Z,20825.7
2018-09-15T16:47:01.156Z,20538.3
2018-09-15T16:48:01.012Z,20229.0
2018-09-15T16:49:01.010Z,19900.7
2018-09-15T16:50:01.010Z,19565.5
2018-09-15T16:51:01.034Z,19231.7
2018-09-15T16:52:01.150Z,18907.5
2018-09-15T16:53:01.012Z,18593.1
2018-09-15T16:54:01.010Z,18263.6
2018-09-15T16:55:01.013Z,17894.5
2018-09-15T16:56:01.015Z,17495.1
2018-09-15T16:57:01.250Z,17092.1
2018-09-15T16:58:01.012Z,16704.0
2018-09-15T16:59:01.009Z,16337.0
2018-09-15T17:00:01.012Z,16012.1
2018-09-15T17:01:01.013Z,15737.0
2018-09-15T17:02:01.198Z,15507.5
2018-09-15T17:03:01.011Z,15330.9
2018-09-15T17:04:01.012Z,15202.1
2018-09-15T17:05:01.013Z,15072.9
2018-09-15T17:06:01.014Z,14952.2
2018-09-15T17:07:01.162Z,14847.5
2018-09-15T17:08:01.015Z,14757.5
2018-09-15T17:09:01.013Z,14657.8
2018-09-15T17:10:01.054Z,14564.5
2018-09-15T17:11:01.014Z,14505.5
2018-09-15T17:12:01.190Z,14460.1
2018-09-15T17:13:01.012Z,14403.6
2018-09-15T17:14:01.012Z,14339.0
2018-09-15T17:15:01.013Z,14248.5
2018-09-15T17:16:01.064Z,14107.4
2018-09-15T17:17:01.222Z,13892.9
2018-09-15T17:18:01.018Z,13596.8
2018-09-15T17:19:01.021Z,13230.7
2018-09-15T17:20:01.019Z,12845.3
2018-09-15T17:21:01.018Z,12445.1
2018-09-15T17:22:01.215Z,12019.2
2018-09-15T17:23:01.216Z,11560.5
2018-09-15T17:24:01.020Z,11103.0
2018-09-15T17:25:01.025Z,10649.1
2018-09-15T17:26:01.021Z,10184.7
2018-09-15T17:27:01.195Z,9727.6
2018-09-15T17:28:01.022Z,9275.1
2018-09-15T17:29:00.988Z,8806.0
2018-09-15T17:30:01.020Z,8319.8
2018-09-15T17:31:01.090Z,7830.4
2018-09-15T17:32:01.196Z,7353.2
2018-09-15T17:33:01.023Z,6893.5
2018-09-15T17:34:01.026Z,6453.7
2018-09-15T17:35:01.027Z,6039.9
2018-09-15T17:36:01.022Z,5646.3
2018-09-15T17:37:01.224Z,5272.8
2018-09-15T17:38:01.026Z,4924.2
2018-09-15T17:39:01.029Z,4601.3
2018-09-15T17:40:01.022Z,4302.1
2018-09-15T17:41:00.990Z,4017.0
2018-09-15T17:42:01.204Z,3727.9
2018-09-15T17:43:01.020Z,3439.7
2018-09-15T17:44:01.025Z,3166.6
2018-09-15T17:45:01.024Z,2915.0
2018-09-15T17:46:01.022Z,2685.9
2018-09-15T17:47:01.197Z,2474.8
2018-09-15T17:48:01.028Z,2277.1
2018-09-15T17:49:01.028Z,2090.0
2018-09-15T17:50:01.022Z,1912.4
2018-09-15T17:51:01.023Z,1744.5
2018-09-15T17:52:01.202Z,1584.4
2018-09-15T17:53:01.024Z,1429.2
2018-09-15T17:54:01.024Z,1276.7
2018-09-15T17:55:01.096Z,1129.1
2018-09-15T17:56:01.022Z,990.5
2018-09-15T17:57:01.261Z,862.9
2018-09-15T17:58:01.024Z,745.9
2018-09-15T17:59:01.025Z,639.7
2018-09-15T18:00:01.027Z,546.0
2018-09-15T18:01:01.025Z,466.8
2018-09-15T18:02:01.232Z,401.6
2018-09-15T18:03:01.032Z,346.9
2018-09-15T18:04:01.026Z,299.3
2018-09-15T18:05:01.071Z,257.3
2018-09-15T18:06:01.033Z,220.2
2018-09-15T18:07:01.194Z,187.6
2018-09-15T18:08:01.034Z,159.2
2018-09-15T18:09:01.065Z,134.7
2018-09-15T18:10:01.116Z,114.0
2018-09-15T18:11:01.030Z,96.5
2018-09-15T18:12:01.243Z,81.7
2018-09-15T18:13:01.029Z,69.3
2018-09-15T18:14:01.062Z,58.7
2018-09-15T18:15:01.052Z,49.7
2018-09-15T18:16:01.032Z,42.1
2018-09-15T18:17:01.167Z,35.7
2018-09-15T18:18:01.030Z,30.2
2018-09-15T18:19:01.066Z,25.5
2018-09-15T18:20:01.029Z,21.6
2018-09-15T18:21:01.041Z,18.3
2018-09-15T18:22:01.220Z,15.5
2018-09-15T18:23:01.029Z,13.1
2018-09-15T18:24:01.062Z,11.1
2018-09-15T18:25:01.029Z,9.3
2018-09-15T18:26:01.031Z,7.9
2018-09-15T18:27:01.174Z,6.7
2018-09-15T18:28:01.085Z,5.6
2018-09-15T18:29:01.063Z,4.7
2018-09-15T18:30:01.028Z,4.0
2018-09-15T18:31:01.029Z,3.4
2018-09-15T18:32:01.174Z,2.9
2018-09-15T18:33:01.029Z,2.5
2018-09-15T18:34:01.064Z,2.1
2018-09-15T18:35:00.999Z,1.8
2018-09-15T18:36:01.153Z,1.5
2018-09-15T18:37:01.416Z,1.3
2018-09-15T18:38:01.037Z,1.1
2018-09-15T18:39:01.058Z,0.9
2018-09-15T18:40:01.030Z,0.7
2018-09-15T18:41:01.038Z,0.6
2018-09-15T18:42:01.238Z,0.5
2018-09-15T18:43:01.196Z,0.4
2018-09-15T18:44:01.032Z,0.3
2018-09-15T18:45:01.033Z,0.3
2018-09-15T18:46:01.038Z,0.2
2018-09-15T18:47:01.170Z,0.1
